Time;durP1;ratioP1;P1;durP2;ratioP2;P2;SDS_P1;SDS_P2;PMS_P1;PMS_P2;Temp;Humidity;BMP_temperature;BMP_pressure;BME280_temperature;BME280_humidity;BME280_pressure;Samples;Min_cycle;Max_cycle;Signal;HPM_P1;HPM_P2
2023/02/05 00:01:13;;;;;;;1999.90;999.90;;;;;;;0.15;64.25;99382.41;5073436;28;20048;-73
2023/02/05 00:03:39;;;;;;;1999.90;999.90;;;;;;;0.10;63.84;99386.69;5084203;28;20033;-74
2023/02/05 00:06:05;;;;;;;1999.90;999.90;;;;;;;0.18;64.80;99381.19;5079600;28;20035;-76
2023/02/05 00:08:32;;;;;;;1999.90;999.90;;;;;;;0.15;63.08;99385.09;5077045;28;20366;-76
2023/02/05 00:10:58;;;;;;;1999.90;999.90;;;;;;;0.12;63.09;99382.78;5086672;28;20036;-76
2023/02/05 00:13:23;;;;;;;1999.90;999.90;;;;;;;0.13;63.77;99388.97;5074233;28;20581;-76
2023/02/05 00:15:49;;;;;;;1999.90;999.90;;;;;;;0.11;63.46;99383.81;5081396;28;20035;-76
2023/02/05 00:18:14;;;;;;;1999.90;999.90;;;;;;;0.06;63.76;99388.09;5081053;28;20115;-74
2023/02/05 00:20:40;;;;;;;1999.90;999.90;;;;;;;0.03;63.44;99391.19;5075748;28;20534;-77
2023/02/05 00:23:05;;;;;;;1999.90;999.90;;;;;;;0.02;64.00;99387.66;5088534;28;20114;-78
2023/02/05 00:25:30;;;;;;;1999.90;999.90;;;;;;;-0.01;64.31;99388.88;5075749;28;20032;-74
2023/02/05 00:27:56;;;;;;;1999.90;999.90;;;;;;;0.02;64.42;99392.19;5081336;28;20031;-75
2023/02/05 00:30:21;;;;;;;1999.90;999.90;;;;;;;-0.08;64.55;99389.81;5083754;28;20135;-74
2023/02/05 00:32:47;;;;;;;1999.90;999.90;;;;;;;-0.09;64.67;99390.84;5078692;28;20056;-77
2023/02/05 00:35:12;;;;;;;1999.90;999.90;;;;;;;-0.06;64.49;99377.84;5090376;28;20155;-74
2023/02/05 00:37:37;;;;;;;1999.90;999.90;;;;;;;-0.09;64.35;99393.53;5079557;28;20097;-78
2023/02/05 00:40:03;;;;;;;1999.90;999.90;;;;;;;-0.08;64.71;99401.41;5084469;28;20146;-77
2023/02/05 00:42:29;;;;;;;1999.90;999.90;;;;;;;-0.16;64.20;99390.78;5086975;28;20476;-75
2023/02/05 00:44:54;;;;;;;1999.90;999.90;;;;;;;-0.12;63.87;99393.91;5076095;28;21778;-73
2023/02/05 00:47:20;;;;;;;1999.90;999.90;;;;;;;-0.20;63.93;99386.81;5090389;28;20024;-76
2023/02/05 00:49:45;;;;;;;1999.90;999.90;;;;;;;-0.24;64.20;99395.44;5080773;28;20039;-73
2023/02/05 00:52:10;;;;;;;1999.90;999.90;;;;;;;-0.24;66.62;99404.34;5083058;28;20021;-74
2023/02/05 00:54:36;;;;;;;1999.90;999.90;;;;;;;-0.26;65.63;99387.59;5088001;28;20070;-76
2023/02/05 00:57:01;;;;;;;1999.90;999.90;;;;;;;-0.23;66.60;99391.75;5077509;28;20032;-76
2023/02/05 00:59:27;;;;;;;1999.90;999.90;;;;;;;-0.23;66.56;99397.97;5089982;28;20115;-76
2023/02/05 01:01:52;;;;;;;1999.90;999.90;;;;;;;-0.25;66.43;99399.97;5082028;28;20107;-74
2023/02/05 01:04:18;;;;;;;1999.90;999.90;;;;;;;-0.25;68.78;99405.34;5082738;28;20111;-74
2023/02/05 01:06:43;;;;;;;1999.90;999.90;;;;;;;-0.39;68.46;99387.44;5088272;28;20035;-75
2023/02/05 01:09:08;;;;;;;1999.90;999.90;;;;;;;-0.32;68.91;99415.22;5076490;28;20447;-74
2023/02/05 01:11:34;;;;;;;1999.90;999.90;;;;;;;-0.53;70.80;99407.09;5087757;28;20106;-74
2023/02/05 01:13:59;;;;;;;1999.90;999.90;;;;;;;-0.62;72.88;99413.59;5080746;28;20012;-76
2023/02/05 01:16:25;;;;;;;1999.90;999.90;;;;;;;-0.75;75.53;99408.09;5080760;28;20025;-74
2023/02/05 01:18:51;;;;;;;1999.90;999.90;;;;;;;-0.83;77.13;99410.88;5089104;28;20486;-75
2023/02/05 01:21:17;;;;;;;1999.90;999.90;;;;;;;-0.72;77.71;99416.59;5076270;28;20476;-76
2023/02/05 01:23:42;;;;;;;1999.90;999.90;;;;;;;-0.69;78.00;99412.72;5086579;28;20036;-75
2023/02/05 01:26:08;;;;;;;1999.90;999.90;;;;;;;-0.88;78.36;99406.06;5083014;28;20032;-73
2023/02/05 01:28:33;;;;;;;1999.90;999.90;;;;;;;-0.96;80.43;99406.16;5079445;28;20028;-73
2023/02/05 01:30:58;;;;;;;1999.90;999.90;;;;;;;-1.11;82.21;99405.31;5089508;28;20035;-74
2023/02/05 01:33:24;;;;;;;1999.90;999.90;;;;;;;-1.08;84.08;99419.22;5076664;28;20027;-74
2023/02/05 01:35:49;;;;;;;1999.90;999.90;;;;;;;-1.03;85.86;99410.59;5085336;28;20503;-75
2023/02/05 01:38:14;;;;;;;1999.90;999.90;;;;;;;-1.15;86.02;99395.97;5083773;28;20357;-73
2023/02/05 01:40:40;;;;;;;1999.90;999.90;;;;;;;-1.08;87.12;99397.75;5077814;28;20020;-73
2023/02/05 01:43:16;;;;;;;1999.90;999.90;;;;;;;-1.07;86.96;99404.75;5079930;28;20032;-74
2023/02/05 01:45:41;;;;;;;1999.90;999.90;;;;;;;-1.02;87.45;99400.69;5092209;28;20391;-75
2023/02/05 01:48:08;;;;;;;1999.90;999.90;;;;;;;-1.08;87.42;99400.44;5082316;28;20112;-76
2023/02/05 01:50:43;;;;;;;1999.90;999.90;;;;;;;-1.17;88.05;99393.50;5091595;28;20031;-74
2023/02/05 01:53:12;;;;;;;1999.90;999.90;;;;;;;-1.21;87.74;99408.28;5092048;28;20388;-74
2023/02/05 01:55:55;;;;;;;1999.90;999.90;;;;;;;-1.12;87.81;99406.34;5091845;28;20047;-74
2023/02/05 01:58:24;;;;;;;1999.90;999.90;;;;;;;-1.23;88.57;99401.44;5092214;28;20036;-77
2023/02/05 02:00:50;;;;;;;1999.90;999.90;;;;;;;-1.31;88.98;99401.50;5075945;28;20060;-78
2023/02/05 02:03:15;;;;;;;1999.90;999.90;;;;;;;-1.22;90.13;99414.66;5087161;28;20802;-78
2023/02/05 02:05:41;;;;;;;1999.90;999.90;;;;;;;-1.31;90.38;99402.34;5076795;28;20023;-76
2023/02/05 02:08:10;;;;;;;1999.90;999.90;;;;;;;-1.09;90.55;99412.16;5091858;28;20028;-77
2023/02/05 02:10:37;;;;;;;1999.90;999.90;;;;;;;-1.23;88.88;99396.91;5092142;28;20565;-77
2023/02/05 02:13:02;;;;;;;1999.90;999.90;;;;;;;-1.15;90.14;99394.13;5078617;28;20492;-78
2023/02/05 02:15:28;;;;;;;1999.90;999.90;;;;;;;-1.09;89.15;99401.44;5087046;28;20049;-76
2023/02/05 02:18:24;;;;;;;1999.90;999.90;;;;;;;-1.05;87.87;99407.25;5079876;28;20035;-77
2023/02/05 02:21:03;;;;;;;1999.90;999.90;;;;;;;-1.10;88.37;99407.81;5083638;28;20480;-79
2023/02/05 02:23:59;;;;;;;1999.90;999.90;;;;;;;-1.14;88.81;99403.84;5092210;28;20032;-77
2023/02/05 02:27:02;;;;;;;1999.90;999.90;;;;;;;-1.23;90.65;99394.22;5091858;28;20067;-77
2023/02/05 02:29:28;;;;;;;1999.90;999.90;;;;;;;-1.30;90.10;99392.44;5041462;28;20044;-76
2023/02/05 02:31:59;;;;;;;1999.90;999.90;;;;;;;-1.33;90.00;99384.78;5092537;28;20365;-79
2023/02/05 02:34:37;;;;;;;1999.90;999.90;;;;;;;-1.17;89.42;99396.16;5090373;28;20442;-76
2023/02/05 02:37:10;;;;;;;1999.90;999.90;;;;;;;-1.19;88.57;99395.50;5091996;28;20020;-78
2023/02/05 02:39:41;;;;;;;1999.90;999.90;;;;;;;-1.29;88.67;99394.13;5091673;28;20028;-82
2023/02/05 02:42:15;;;;;;;1999.90;999.90;;;;;;;-1.30;90.17;99390.59;5090832;28;20036;-79
2023/02/05 02:44:47;;;;;;;1999.90;999.90;;;;;;;-1.30;89.61;99389.78;5091754;28;20028;-80
2023/02/05 02:47:18;;;;;;;1999.90;999.90;;;;;;;-1.29;90.11;99388.75;5091499;28;20039;-80
2023/02/05 02:49:56;;;;;;;1999.90;999.90;;;;;;;-1.32;89.12;99389.97;5089172;28;20557;-78
2023/02/05 02:52:24;;;;;;;1999.90;999.90;;;;;;;-1.40;90.22;99370.41;5091224;28;20024;-81
2023/02/05 02:54:53;;;;;;;1999.90;999.90;;;;;;;-1.30;92.04;99387.09;5090429;28;20020;-80
2023/02/05 02:57:23;;;;;;;1999.90;999.90;;;;;;;-1.48;92.12;99379.41;5091899;28;20028;-78
2023/02/05 02:59:54;;;;;;;1999.90;999.90;;;;;;;-1.48;91.38;99390.13;5092018;28;20396;-80
2023/02/05 03:02:20;;;;;;;1999.90;999.90;;;;;;;-1.56;92.07;99384.00;5091802;28;20032;-79
2023/02/05 03:04:55;;;;;;;1999.90;999.90;;;;;;;-1.47;92.35;99394.47;5091702;28;20035;-77
2023/02/05 03:07:26;;;;;;;;;;;;;;;-1.43;89.82;99401.13;5091811;28;20065;-78
2023/02/05 03:10:01;;;;;;;1999.90;999.90;;;;;;;-1.46;89.23;99398.81;5091129;28;20376;-79
2023/02/05 03:12:27;;;;;;;1999.90;999.90;;;;;;;-1.47;88.11;99407.06;5091135;28;20047;-76
2023/02/05 03:14:52;;;;;;;1999.90;999.90;;;;;;;-1.55;88.93;99409.81;5091378;28;20059;-77
2023/02/05 03:17:19;;;;;;;1999.90;999.90;;;;;;;-1.43;87.80;99409.19;5092456;28;20082;-76
2023/02/05 03:19:49;;;;;;;1999.90;999.90;;;;;;;-1.46;87.75;99404.19;5091064;28;20020;-75
2023/02/05 03:22:14;;;;;;;1999.90;999.90;;;;;;;-1.44;87.56;99404.81;5090522;28;20101;-76
2023/02/05 03:24:41;;;;;;;1999.90;999.90;;;;;;;-1.44;86.43;99407.50;5090886;28;20464;-80
2023/02/05 03:27:06;;;;;;;1999.90;999.90;;;;;;;-1.44;86.40;99412.88;5090880;28;20031;-78
2023/02/05 03:29:37;;;;;;;1999.90;999.90;;;;;;;-1.47;86.33;99402.50;5090889;28;20047;-77
2023/02/05 03:32:21;;;;;;;1999.90;999.90;;;;;;;-1.43;88.13;99397.63;5091172;28;20063;-75
2023/02/05 03:35:19;;;;;;;1999.90;999.90;;;;;;;-1.52;88.90;99399.56;5090984;28;20038;-79
2023/02/05 03:37:44;;;;;;;1999.90;999.90;;;;;;;-1.54;89.65;99396.22;5090774;28;20123;-76
2023/02/05 03:40:23;;;;;;;1999.90;999.90;;;;;;;-1.57;89.75;99398.44;5090862;28;20111;-77
2023/02/05 03:42:57;;;;;;;1999.90;999.90;;;;;;;-1.68;88.83;99391.66;5091039;28;20040;-78
2023/02/05 03:45:53;;;;;;;1999.90;999.90;;;;;;;-1.69;89.96;99403.38;5091154;28;20059;-77
2023/02/05 03:48:37;;;;;;;1999.90;999.90;;;;;;;-1.76;89.83;99402.47;5080536;28;20621;-77
2023/02/05 03:51:18;;;;;;;1999.90;999.90;;;;;;;-1.70;91.30;99396.38;5070757;28;20040;-75
2023/02/05 03:54:32;;;;;;;1999.90;999.90;;;;;;;-1.52;89.15;99407.59;5070611;28;20028;-75
2023/02/05 03:57:44;;;;;;;1999.90;999.90;;;;;;;-1.53;88.46;99408.59;5065317;28;20100;-77
2023/02/05 04:00:11;;;;;;;1999.90;999.90;;;;;;;-1.48;88.95;99400.03;5053109;28;20044;-81
2023/02/05 04:02:37;;;;;;;1999.90;999.90;;;;;;;-1.52;88.96;99412.97;5071224;28;20106;-76
2023/02/05 04:05:03;;;;;;;1999.90;999.90;;;;;;;-1.54;90.05;99415.00;5072053;28;20036;-76
2023/02/05 04:07:28;;;;;;;1999.90;999.90;;;;;;;-1.47;89.95;99412.44;5074537;28;20032;-76
2023/02/05 04:09:54;;;;;;;1999.90;999.90;;;;;;;-1.52;88.37;99421.00;5074502;28;20390;-75
2023/02/05 04:12:19;;;;;;;1999.90;999.90;;;;;;;-1.53;90.30;99413.97;5074973;28;20028;-75
2023/02/05 04:14:45;;;;;;;1999.90;999.90;;;;;;;-1.56;90.01;99417.00;5075093;28;20542;-76
2023/02/05 04:17:11;;;;;;;1999.90;999.90;;;;;;;-1.59;88.87;99403.13;5074247;28;20036;-76
2023/02/05 04:19:36;;;;;;;1999.90;999.90;;;;;;;-1.66;90.58;99401.19;5074250;28;20032;-76
2023/02/05 04:22:02;;;;;;;1999.90;999.90;;;;;;;-1.49;91.20;99415.28;5074367;28;20565;-74
2023/02/05 04:24:28;;;;;;;1999.90;999.90;;;;;;;-1.72;92.19;99398.38;5074462;28;20035;-75
2023/02/05 04:26:55;;;;;;;1999.90;999.90;;;;;;;-1.63;92.27;99414.22;5074294;28;20016;-75
2023/02/05 04:29:21;;;;;;;1999.90;999.90;;;;;;;-1.80;92.79;99395.78;5074263;28;20032;-77
2023/02/05 04:31:46;;;;;;;1999.90;999.90;;;;;;;-1.58;93.49;99408.34;5072917;28;20025;-75
2023/02/05 04:34:12;;;;;;;1999.90;999.90;;;;;;;-1.67;93.01;99396.84;5074014;28;20461;-76
2023/02/05 04:36:37;;;;;;;1999.90;999.90;;;;;;;-1.55;94.37;99405.28;5074065;28;20040;-75
2023/02/05 04:39:03;;;;;;;1999.90;999.90;;;;;;;-1.42;93.57;99408.19;5074010;28;20111;-76
2023/02/05 04:41:28;;;;;;;1999.90;999.90;;;;;;;-1.55;92.69;99399.91;5074018;28;20093;-76
2023/02/05 04:43:54;;;;;;;1999.90;999.90;;;;;;;-1.42;91.94;99397.44;5074378;28;20434;-76
2023/02/05 04:46:19;;;;;;;1999.90;999.90;;;;;;;-1.48;91.92;99400.88;5073825;28;20028;-76
2023/02/05 04:48:44;;;;;;;1999.90;999.90;;;;;;;-1.54;91.84;99403.44;5073693;28;20482;-75
2023/02/05 04:51:12;;;;;;;1999.90;999.90;;;;;;;-1.60;92.29;99402.31;5073931;28;20162;-80
2023/02/05 04:53:38;;;;;;;1999.90;999.90;;;;;;;-1.73;92.58;99391.38;5073600;28;20089;-81
2023/02/05 04:56:05;;;;;;;1999.90;999.90;;;;;;;-1.75;93.20;99396.91;5072875;28;20021;-82
2023/02/05 04:58:30;;;;;;;1999.90;999.90;;;;;;;-1.79;94.79;99397.47;5072565;28;20024;-81
2023/02/05 05:00:56;;;;;;;1999.90;999.90;;;;;;;-1.69;94.22;99392.66;5074085;28;20481;-82
2023/02/05 05:03:21;;;;;;;1999.90;999.90;;;;;;;-1.53;95.17;99413.13;5074128;28;20021;-81
2023/02/05 05:05:47;;;;;;;1999.90;999.90;;;;;;;-1.58;94.35;99410.19;5073859;28;20422;-79
2023/02/05 05:08:12;;;;;;;1999.90;999.90;;;;;;;-1.69;94.32;99404.22;5076422;28;20029;-79
2023/02/05 05:10:37;;;;;;;1999.90;999.90;;;;;;;-1.72;95.59;99406.44;5077897;28;20116;-77
2023/02/05 05:13:03;;;;;;;1999.90;999.90;;;;;;;-1.81;97.31;99423.59;5074865;28;20025;-80
2023/02/05 05:15:28;;;;;;;1999.90;999.90;;;;;;;-1.85;96.79;99409.72;5073393;28;20055;-75
2023/02/05 05:17:54;;;;;;;1999.90;999.90;;;;;;;-1.86;97.96;99409.91;5073200;28;20070;-76
2023/02/05 05:20:19;;;;;;;1999.90;999.90;;;;;;;-2.07;100.00;99420.47;5072589;28;20472;-76
2023/02/05 05:22:44;;;;;;;1999.90;999.90;;;;;;;-2.10;100.00;99429.72;5074748;28;20032;-75
2023/02/05 05:25:10;;;;;;;1999.90;999.90;;;;;;;-2.09;100.00;99438.56;5073467;28;20396;-76
2023/02/05 05:27:35;;;;;;;1999.90;999.90;;;;;;;-2.25;100.00;99413.56;5081028;28;20034;-76
2023/02/05 05:30:00;;;;;;;1999.90;999.90;;;;;;;-2.06;99.53;99432.84;5091836;28;20032;-76
2023/02/05 05:32:26;;;;;;;1999.90;999.90;;;;;;;-2.03;100.00;99438.69;5079899;28;20033;-76
2023/02/05 05:34:51;;;;;;;1999.90;999.90;;;;;;;-2.02;100.00;99428.81;5072745;28;20384;-76
2023/02/05 05:37:16;;;;;;;1999.90;999.90;;;;;;;-1.89;99.82;99442.44;5072579;28;20032;-78
2023/02/05 05:45:10;;;;;;;1999.90;999.90;;;;;;;-1.81;99.59;99437.84;5092784;28;20050;-75
2023/02/05 05:47:35;;;;;;;1999.90;999.90;;;;;;;-1.89;96.13;99443.28;5092829;28;20032;-76
2023/02/05 05:50:01;;;;;;;1999.90;999.90;;;;;;;-1.92;95.96;99454.38;5095536;28;20052;-75
2023/02/05 05:52:26;;;;;;;1999.90;999.90;;;;;;;-1.88;96.18;99452.16;5092814;28;20529;-75
2023/02/05 05:54:51;;;;;;;1999.90;999.90;;;;;;;-1.95;96.00;99451.22;5092928;28;20024;-77
2023/02/05 05:57:17;;;;;;;1999.90;999.90;;;;;;;-2.01;96.48;99446.56;5094241;28;20103;-78
2023/02/05 05:59:42;;;;;;;1999.90;999.90;;;;;;;-1.91;96.66;99460.56;5092844;28;20027;-81
2023/02/05 06:02:07;;;;;;;1999.90;999.90;;;;;;;-1.93;96.88;99458.06;5091339;28;20468;-78
2023/02/05 06:04:33;;;;;;;1999.90;999.90;;;;;;;-1.96;97.74;99463.78;5092735;28;20027;-78
2023/02/05 06:06:58;;;;;;;1999.90;999.90;;;;;;;-1.99;98.32;99472.16;5087538;28;20056;-76
2023/02/05 06:09:24;;;;;;;1999.90;999.90;;;;;;;-1.99;98.59;99460.59;5072342;28;20041;-79
2023/02/05 06:11:50;;;;;;;1999.90;999.90;;;;;;;-1.93;98.88;99478.66;5072983;28;20785;-79
2023/02/05 06:14:15;;;;;;;1999.90;999.90;;;;;;;-1.87;98.80;99476.09;5072293;28;20059;-76
2023/02/05 06:16:41;;;;;;;1999.90;999.90;;;;;;;-1.88;99.51;99481.66;5073641;28;20431;-76
2023/02/05 06:19:06;;;;;;;1999.90;999.90;;;;;;;-1.86;99.53;99483.16;5072909;28;20115;-79
2023/02/05 06:21:32;;;;;;;1999.90;999.90;;;;;;;-1.94;100.00;99474.34;5087543;28;20036;-79
2023/02/05 06:23:57;;;;;;;1999.90;999.90;;;;;;;-1.88;100.00;99495.88;5092146;28;20141;-77
2023/02/05 06:26:23;;;;;;;1999.90;999.90;;;;;;;-1.81;100.00;99502.19;5091664;28;20093;-77
2023/02/05 06:28:48;;;;;;;1999.90;999.90;;;;;;;-1.82;100.00;99489.81;5091710;28;20088;-76
2023/02/05 06:31:13;;;;;;;1999.90;999.90;;;;;;;-1.76;100.00;99509.72;5092419;28;20477;-76
2023/02/05 06:33:39;;;;;;;1999.90;999.90;;;;;;;-1.64;100.00;99508.28;5092641;28;20061;-82
2023/02/05 06:36:05;;;;;;;1999.90;999.90;;;;;;;-1.68;100.00;99490.88;5091879;28;20472;-78
2023/02/05 06:38:30;;;;;;;1999.90;999.90;;;;;;;-1.51;100.00;99518.41;5092466;28;20027;-78
2023/02/05 06:40:56;;;;;;;1999.90;999.90;;;;;;;-1.46;100.00;99513.34;5091837;28;20032;-80
2023/02/05 06:43:21;;;;;;;1999.90;999.90;;;;;;;-1.48;100.00;99521.56;5091820;28;20036;-76
2023/02/05 06:45:47;;;;;;;1999.90;999.90;;;;;;;-1.34;99.16;99534.19;5099515;28;20020;-76
2023/02/05 06:48:13;;;;;;;1999.90;999.90;;;;;;;-1.30;98.90;99531.97;5091935;28;20055;-74
2023/02/05 06:50:38;;;;;;;1999.90;999.90;;;;;;;-1.04;97.66;99531.59;5091502;28;20494;-74
2023/02/05 06:53:04;;;;;;;1999.90;999.90;;;;;;;-0.72;95.00;99525.91;5092006;28;20020;-75
2023/02/05 06:55:29;;;;;;;1999.90;999.90;;;;;;;-0.29;90.74;99530.44;5091989;28;20032;-76
2023/02/05 06:57:54;;;;;;;1999.90;999.90;;;;;;;-0.17;88.27;99531.63;5092541;28;20028;-75
2023/02/05 07:00:20;;;;;;;1999.90;999.90;;;;;;;-0.31;89.39;99543.19;5091386;28;20509;-77
2023/02/05 07:02:45;;;;;;;1999.90;999.90;;;;;;;-0.14;88.58;99552.75;5091175;28;20024;-76
2023/02/05 07:05:11;;;;;;;1999.90;999.90;;;;;;;0.04;86.61;99543.44;5091171;28;20024;-76
2023/02/05 07:07:37;;;;;;;1999.90;999.90;;;;;;;0.14;85.14;99533.22;5091598;28;20016;-76
2023/02/05 07:10:03;;;;;;;1999.90;999.90;;;;;;;0.91;81.04;99558.41;5092019;28;20486;-76
2023/02/05 07:12:29;;;;;;;1999.90;999.90;;;;;;;1.40;75.68;99569.19;5091319;28;20070;-76
2023/02/05 07:14:55;;;;;;;1999.90;999.90;;;;;;;1.63;75.24;99556.25;5091067;28;20028;-77
2023/02/05 07:17:20;;;;;;;1999.90;999.90;;;;;;;2.06;71.54;99568.53;5091428;28;20031;-77
2023/02/05 07:19:45;;;;;;;1999.90;999.90;;;;;;;2.28;70.14;99579.19;5090756;28;20036;-80
2023/02/05 07:22:15;;;;;;;1999.90;999.90;;;;;;;2.66;67.25;99573.06;5072781;28;20052;-79
2023/02/05 07:24:40;;;;;;;1999.90;999.90;;;;;;;2.86;66.07;99589.31;5072259;28;20039;-83
2023/02/05 07:27:06;;;;;;;1999.90;999.90;;;;;;;2.66;67.12;99578.47;5078047;28;20020;-83
2023/02/05 07:29:31;;;;;;;1999.90;999.90;;;;;;;1.93;68.14;99554.97;5077078;28;20495;-80
2023/02/05 07:31:56;;;;;;;1999.90;999.90;;;;;;;1.88;68.90;99572.81;5078661;28;20024;-84
2023/02/05 07:34:22;;;;;;;1999.90;999.90;;;;;;;1.79;69.40;99576.66;5079186;28;20030;-82
2023/02/05 07:36:51;;;;;;;1999.90;999.90;;;;;;;1.88;68.82;99584.41;5076429;28;20491;-83
2023/02/05 07:39:17;;;;;;;1999.90;999.90;;;;;;;2.60;67.48;99583.88;5072881;28;20103;-85
2023/02/05 07:41:43;;;;;;;1999.90;999.90;;;;;;;3.39;63.25;99586.63;5071709;28;20598;-79
2023/02/05 07:44:08;;;;;;;1999.90;999.90;;;;;;;4.40;60.37;99583.28;5072509;28;20024;-82
2023/02/05 07:46:34;;;;;;;1999.90;999.90;;;;;;;6.10;54.13;99599.28;5075748;28;20362;-81
2023/02/05 07:48:59;;;;;;;1999.90;999.90;;;;;;;6.33;50.68;99602.97;5075566;28;20052;-81
2023/02/05 07:51:25;;;;;;;1999.90;999.90;;;;;;;7.32;48.60;99602.44;5075413;28;20028;-81
2023/02/05 07:53:51;;;;;;;1999.90;999.90;;;;;;;8.99;44.33;99614.38;5075105;28;20032;-81
2023/02/05 07:56:20;;;;;;;1999.90;999.90;;;;;;;6.80;46.71;99611.38;5079781;28;20027;-83
2023/02/05 07:58:46;;;;;;;1999.90;999.90;;;;;;;7.77;45.56;99607.38;5091291;28;20387;-81
2023/02/05 08:01:11;;;;;;;1999.90;999.90;;;;;;;8.48;43.21;99574.34;5092607;28;20032;-83
2023/02/05 08:03:37;;;;;;;1999.90;999.90;;;;;;;10.35;40.55;99624.84;5089893;28;20024;-75
2023/02/05 08:06:04;;;;;;;1999.90;999.90;;;;;;;10.49;39.13;99631.59;5070201;28;20044;-75
2023/02/05 08:08:29;;;;;;;1999.90;999.90;;;;;;;8.86;41.08;99603.75;5078777;28;20476;-77
2023/02/05 08:11:00;;;;;;;1999.90;999.90;;;;;;;8.01;43.27;99622.63;5088243;28;20044;-75
2023/02/05 08:13:26;;;;;;;1999.90;999.90;;;;;;;5.49;48.78;99610.06;5089576;28;20116;-75
2023/02/05 08:15:51;;;;;;;1999.90;999.90;;;;;;;4.89;51.16;99601.53;5070216;28;20469;-75
2023/02/05 08:18:16;;;;;;;1999.90;999.90;;;;;;;4.56;53.90;99620.72;5070062;28;20107;-76
2023/02/05 08:20:43;;;;;;;1999.90;999.90;;;;;;;3.45;57.37;99623.66;5076263;28;20044;-75
2023/02/05 08:23:08;;;;;;;1999.90;999.90;;;;;;;3.22;58.59;99608.72;5089975;28;20025;-75
2023/02/05 08:25:33;;;;;;;1999.90;999.90;;;;;;;3.16;59.74;99608.69;5089922;28;20073;-76
2023/02/05 08:27:59;;;;;;;1999.90;999.90;;;;;;;2.78;62.13;99603.03;5089970;28;20026;-75
2023/02/05 08:30:24;;;;;;;1999.90;999.90;;;;;;;2.44;63.21;99597.75;5089913;28;20523;-74
2023/02/05 08:32:49;;;;;;;1999.90;999.90;;;;;;;2.01;64.58;99629.50;5084121;28;20385;-77
2023/02/05 08:35:17;;;;;;;1999.90;999.90;;;;;;;1.58;67.95;99604.56;5073506;28;20017;-75
2023/02/05 08:37:42;;;;;;;1999.90;999.90;;;;;;;1.51;68.81;99604.50;5071916;28;20739;-73
2023/02/05 08:40:09;;;;;;;1999.90;999.90;;;;;;;1.21;70.45;99619.19;5068386;28;20035;-76
2023/02/05 08:42:34;;;;;;;1999.90;999.90;;;;;;;1.02;71.57;99622.53;5069528;28;20033;-77
2023/02/05 08:45:00;;;;;;;1999.90;999.90;;;;;;;1.03;71.50;99627.72;5069494;28;20492;-75
2023/02/05 08:47:26;;;;;;;1999.90;999.90;;;;;;;0.87;72.47;99617.25;5070028;28;20167;-74
2023/02/05 08:49:52;;;;;;;1999.90;999.90;;;;;;;0.67;75.07;99616.19;5069905;28;20025;-82
2023/02/05 08:52:17;;;;;;;1999.90;999.90;;;;;;;0.90;75.79;99624.09;5095267;28;20027;-75
2023/02/05 08:54:43;;;;;;;1999.90;999.90;;;;;;;0.88;74.11;99602.72;5092315;28;20028;-77
2023/02/05 08:57:08;;;;;;;1999.90;999.90;;;;;;;0.88;74.78;99613.50;5093653;28;20024;-77
2023/02/05 08:59:34;;;;;;;1999.90;999.90;;;;;;;0.74;75.50;99611.72;5093426;28;20063;-76
2023/02/05 09:02:00;;;;;;;1999.90;999.90;;;;;;;0.48;77.88;99620.31;5093356;28;20471;-75
2023/02/05 09:04:26;;;;;;;1999.90;999.90;;;;;;;0.32;79.52;99606.25;5092581;28;20047;-75
2023/02/05 09:06:51;;;;;;;1999.90;999.90;;;;;;;0.25;80.62;99614.25;5093796;28;20029;-78
2023/02/05 09:09:17;;;;;;;1999.90;999.90;;;;;;;0.06;82.19;99614.84;5093725;28;20408;-75
2023/02/05 09:11:45;;;;;;;1999.90;999.90;;;;;;;0.30;82.28;99619.06;5093462;28;20077;-75
2023/02/05 09:14:11;;;;;;;1999.90;999.90;;;;;;;0.05;82.86;99620.41;5089042;28;20046;-79
2023/02/05 09:16:37;;;;;;;1999.90;999.90;;;;;;;-0.03;84.02;99599.81;5084586;28;20024;-74
2023/02/05 09:19:02;;;;;;;1999.90;999.90;;;;;;;0.33;82.58;99607.94;5083654;28;20103;-74
2023/02/05 09:21:28;;;;;;;1999.90;999.90;;;;;;;0.68;80.98;99612.47;5092881;28;20514;-75
2023/02/05 09:23:54;;;;;;;1999.90;999.90;;;;;;;0.83;79.58;99617.81;5093125;28;20020;-75
2023/02/05 09:26:19;;;;;;;1999.90;999.90;;;;;;;0.75;79.69;99601.78;5093073;28;20517;-75
2023/02/05 09:28:45;;;;;;;1999.90;999.90;;;;;;;0.90;79.26;99611.47;5091782;28;20020;-75
2023/02/05 09:31:13;;;;;;;1999.90;999.90;;;;;;;0.94;78.37;99607.34;5092861;28;20020;-76
2023/02/05 09:33:38;;;;;;;1999.90;999.90;;;;;;;1.05;77.69;99608.69;5093486;28;20396;-75
2023/02/05 09:36:09;;;;;;;1999.90;999.90;;;;;;;1.18;76.92;99613.38;5085185;28;20040;-80
2023/02/05 09:38:35;;;;;;;1999.90;999.90;;;;;;;1.22;76.64;99607.41;5075126;28;20032;-81
2023/02/05 09:41:36;;;;;;;1999.90;999.90;;;;;;;1.21;76.78;99623.75;5071678;28;20052;-79
2023/02/05 09:44:11;;;;;;;1999.90;999.90;;;;;;;1.24;76.30;99613.44;5079642;28;20024;-78
2023/02/05 09:46:57;;;;;;;1999.90;999.90;;;;;;;1.20;76.20;99620.22;5092851;28;20035;-78
2023/02/05 09:49:28;;;;;;;1999.90;999.90;;;;;;;1.43;74.45;99614.59;5092672;28;20032;-76
2023/02/05 09:52:07;;;;;;;1999.90;999.90;;;;;;;1.12;75.78;99608.75;5091689;28;20476;-79
2023/02/05 09:54:42;;;;;;;1999.90;999.90;;;;;;;1.48;73.50;99609.44;5093224;28;20027;-80
2023/02/05 09:57:26;;;;;;;1999.90;999.90;;;;;;;1.50;73.50;99596.63;5093383;28;20024;-78
2023/02/05 09:59:51;;;;;;;1999.90;999.90;;;;;;;1.58;73.28;99593.75;5091385;28;20468;-81
2023/02/05 10:02:25;;;;;;;1999.90;999.90;;;;;;;1.55;73.24;99594.16;5092800;28;20064;-80
2023/02/05 10:04:53;;;;;;;1999.90;999.90;;;;;;;1.31;74.06;99597.31;5092581;28;20077;-79
2023/02/05 10:08:10;;;;;;;1999.90;999.90;;;;;;;1.03;76.20;99590.00;5092562;28;20024;-80
2023/02/05 10:10:44;;;;;;;1999.90;999.90;;;;;;;0.87;76.76;99571.47;5029729;28;20053;-77
2023/02/05 10:13:27;;;;;;;1999.90;999.90;;;;;;;0.80;77.32;99581.31;5030148;28;20592;-77
2023/02/05 10:15:59;;;;;;;1999.90;999.90;;;;;;;0.43;78.30;99581.56;5075050;28;20074;-80
2023/02/05 10:18:50;;;;;;;1999.90;999.90;;;;;;;0.75;79.36;99583.75;5091386;28;20046;-76
2023/02/05 10:21:45;;;;;;;1999.90;999.90;;;;;;;0.44;79.67;99580.50;5092387;28;20035;-83
2023/02/05 10:24:43;;;;;;;1999.90;999.90;;;;;;;0.87;77.40;99579.53;5092423;28;20059;-78
2023/02/05 10:27:15;;;;;;;1999.90;999.90;;;;;;;0.68;77.30;99587.41;5067212;28;20528;-77
2023/02/05 10:30:05;;;;;;;1999.90;999.90;;;;;;;0.70;76.73;99561.97;5092125;28;20028;-78
2023/02/05 10:32:53;;;;;;;1999.90;999.90;;;;;;;0.83;76.78;99572.84;5092092;28;20081;-82
2023/02/05 10:35:37;;;;;;;1999.90;999.90;;;;;;;0.93;76.38;99567.97;5092301;28;20036;-77
2023/02/05 10:38:07;;;;;;;1999.90;999.90;;;;;;;1.27;74.75;99572.59;5092136;28;20032;-79
2023/02/05 10:40:39;;;;;;;1999.90;999.90;;;;;;;1.58;72.44;99567.66;5091909;28;20396;-76
2023/02/05 10:43:14;;;;;;;1999.90;999.90;;;;;;;1.35;71.83;99566.22;5092145;28;20032;-79
2023/02/05 10:45:39;;;;;;;1999.90;999.90;;;;;;;1.30;72.17;99563.28;5090998;28;20121;-77
2023/02/05 10:48:14;;;;;;;1999.90;999.90;;;;;;;1.06;73.56;99562.72;5092143;28;20446;-80
2023/02/05 10:50:42;;;;;;;1999.90;999.90;;;;;;;1.37;72.54;99558.78;5091884;28;20028;-79
2023/02/05 10:53:07;;;;;;;1999.90;999.90;;;;;;;1.39;70.88;99554.88;5091661;28;20407;-81
2023/02/05 10:55:33;;;;;;;1999.90;999.90;;;;;;;2.03;68.74;99547.34;5090194;28;20028;-79
2023/02/05 10:58:06;;;;;;;1999.90;999.90;;;;;;;3.27;63.77;99553.16;5092035;28;20029;-79
2023/02/05 11:00:32;;;;;;;1999.90;999.90;;;;;;;5.18;55.60;99560.25;5091877;28;20054;-77
2023/02/05 11:02:58;;;;;;;1999.90;999.90;;;;;;;8.09;48.49;99560.41;5092140;28;20483;-83
2023/02/05 11:05:35;;;;;;;1999.90;999.90;;;;;;;9.57;42.42;99560.25;5091976;28;20111;-83
2023/02/05 11:08:01;;;;;;;1999.90;999.90;;;;;;;9.18;42.56;99550.28;5091936;28;20020;-79
2023/02/05 11:10:31;;;;;;;1999.90;999.90;;;;;;;8.11;44.07;99541.13;5091857;28;20040;-78